createdAt,value
2023-02-09T00:00:55.021Z,46.08
2023-02-09T00:01:55.012Z,45.76
2023-02-09T00:02:54.943Z,46.08
2023-02-09T00:03:55.009Z,47.70
2023-02-09T00:04:54.940Z,46.08
2023-02-09T00:05:54.934Z,46.41
2023-02-09T00:06:54.922Z,46.08
2023-02-09T00:07:54.904Z,46.73
2023-02-09T00:08:54.915Z,45.92
2023-02-09T00:09:54.886Z,46.25
2023-02-09T00:10:54.843Z,46.57
2023-02-09T00:11:54.859Z,47.70
2023-02-09T00:12:54.822Z,46.73
2023-02-09T00:13:54.823Z,47.05
2023-02-09T00:14:54.803Z,46.08
2023-02-09T00:15:54.799Z,46.08
2023-02-09T00:16:54.863Z,45.60
2023-02-09T00:17:54.755Z,45.76
2023-02-09T00:18:54.765Z,45.60
2023-02-09T00:19:54.735Z,47.21
2023-02-09T00:20:54.741Z,45.76
2023-02-09T00:21:54.730Z,45.76
2023-02-09T00:22:54.723Z,48.02
2023-02-09T00:23:54.682Z,46.89
2023-02-09T00:24:56.500Z,46.57
2023-02-09T00:25:54.672Z,46.08
2023-02-09T00:26:54.667Z,46.08
2023-02-09T00:27:54.697Z,46.25
2023-02-09T00:28:54.615Z,46.25
2023-02-09T00:29:54.602Z,45.60
2023-02-09T00:30:54.618Z,46.57
2023-02-09T00:31:54.642Z,47.05
2023-02-09T00:32:54.580Z,46.08
2023-02-09T00:33:54.571Z,46.08
2023-02-09T00:34:54.578Z,47.70
2023-02-09T00:35:54.564Z,48.18
2023-02-09T00:36:54.542Z,47.21
2023-02-09T00:37:54.513Z,46.57
2023-02-09T00:38:54.501Z,46.89
2023-02-09T00:39:54.481Z,47.86
2023-02-09T00:40:54.472Z,46.57
2023-02-09T00:41:54.478Z,46.25
2023-02-09T00:42:54.444Z,46.08
2023-02-09T00:43:54.431Z,46.73
2023-02-09T00:44:54.407Z,47.05
2023-02-09T00:45:54.424Z,45.76
2023-02-09T00:46:54.420Z,46.41
2023-02-09T00:47:54.405Z,46.89
2023-02-09T00:48:54.393Z,46.08
2023-02-09T00:49:54.358Z,46.25
2023-02-09T00:50:54.368Z,47.53
2023-02-09T00:51:54.357Z,46.25
2023-02-09T00:52:54.465Z,46.08
2023-02-09T00:53:54.292Z,45.60
2023-02-09T00:54:54.273Z,47.70
2023-02-09T00:55:54.272Z,47.21
2023-02-09T00:56:54.255Z,45.76
2023-02-09T00:57:54.264Z,46.25
2023-02-09T00:58:54.222Z,46.89
2023-02-09T00:59:54.221Z,46.73
2023-02-09T01:00:54.263Z,45.76
2023-02-09T01:01:54.192Z,46.57
2023-02-09T01:02:54.186Z,46.57
2023-02-09T01:03:54.168Z,46.41
2023-02-09T01:04:54.170Z,46.41
2023-02-09T01:05:54.129Z,45.92
2023-02-09T01:06:54.123Z,46.08
2023-02-09T01:07:54.119Z,48.18
2023-02-09T01:08:54.105Z,45.76
2023-02-09T01:09:54.082Z,46.08
2023-02-09T01:10:54.066Z,45.28
2023-02-09T01:11:54.066Z,46.08
2023-02-09T01:12:54.068Z,45.76
2023-02-09T01:13:54.027Z,45.60
2023-02-09T01:14:54.020Z,45.12
2023-02-09T01:15:54.020Z,45.60
2023-02-09T01:16:54.061Z,45.76
2023-02-09T01:17:53.992Z,46.08
2023-02-09T01:18:53.990Z,45.76
2023-02-09T01:19:53.971Z,47.05
2023-02-09T01:20:53.949Z,46.08
2023-02-09T01:21:54.055Z,47.53
2023-02-09T01:22:53.917Z,46.89
2023-02-09T01:23:53.904Z,46.25
2023-02-09T01:24:53.917Z,47.53
2023-02-09T01:25:53.907Z,46.73
2023-02-09T01:26:53.910Z,47.21
2023-02-09T01:27:53.894Z,47.05
2023-02-09T01:28:53.905Z,47.21
2023-02-09T01:29:53.860Z,45.76
2023-02-09T01:30:53.935Z,45.44
2023-02-09T01:31:53.980Z,46.08
2023-02-09T01:32:53.893Z,45.92
2023-02-09T01:33:53.805Z,46.89
2023-02-09T01:34:53.787Z,46.25
2023-02-09T01:35:53.823Z,46.57
2023-02-09T01:36:53.809Z,45.12
2023-02-09T01:37:53.922Z,46.08
2023-02-09T01:38:53.740Z,45.92
2023-02-09T01:39:53.690Z,45.92
2023-02-09T01:40:53.684Z,46.73
2023-02-09T01:41:53.673Z,45.76
2023-02-09T01:42:53.672Z,46.57
2023-02-09T01:43:53.661Z,46.73
2023-02-09T01:44:53.636Z,47.37
2023-02-09T01:45:53.674Z,45.12
2023-02-09T01:46:53.603Z,46.08
2023-02-09T01:47:53.629Z,46.73
2023-02-09T01:48:53.576Z,46.57
2023-02-09T01:49:53.591Z,46.25
2023-02-09T01:50:53.592Z,46.73
2023-02-09T01:51:53.542Z,46.41
2023-02-09T01:52:53.565Z,45.44
2023-02-09T01:53:53.634Z,45.76
2023-02-09T01:54:53.514Z,46.08
2023-02-09T01:55:53.513Z,45.44
2023-02-09T01:56:53.496Z,46.41
2023-02-09T01:57:53.473Z,46.08
2023-02-09T01:58:53.454Z,46.73
2023-02-09T01:59:53.455Z,46.25
2023-02-09T02:00:53.422Z,47.21
2023-02-09T02:01:53.422Z,46.57
2023-02-09T02:02:53.466Z,47.70
2023-02-09T02:03:53.404Z,47.05
2023-02-09T02:04:53.371Z,45.92
2023-02-09T02:05:53.367Z,45.92
2023-02-09T02:06:53.352Z,46.08
2023-02-09T02:07:53.409Z,47.05
2023-02-09T02:08:53.320Z,47.21
2023-02-09T02:09:53.328Z,46.08
2023-02-09T02:10:53.300Z,47.05
2023-02-09T02:11:53.289Z,46.57
2023-02-09T02:12:53.259Z,46.73
2023-02-09T02:13:53.279Z,46.73
2023-02-09T02:14:53.242Z,46.08
2023-02-09T02:15:53.288Z,46.89
2023-02-09T02:16:53.221Z,46.08
2023-02-09T02:17:53.210Z,45.76
2023-02-09T02:18:53.220Z,45.76
2023-02-09T02:19:53.187Z,46.25
2023-02-09T02:20:53.156Z,46.25
2023-02-09T02:21:53.148Z,46.08
2023-02-09T02:22:53.154Z,46.25
2023-02-09T02:23:53.164Z,46.41
2023-02-09T02:24:53.146Z,46.57
2023-02-09T02:25:53.106Z,45.92
2023-02-09T02:26:53.099Z,46.73
2023-02-09T02:27:53.150Z,46.89
2023-02-09T02:28:53.066Z,46.25
2023-02-09T02:29:53.054Z,45.76
2023-02-09T02:30:53.152Z,45.60
2023-02-09T02:31:53.100Z,46.41
2023-02-09T02:32:53.024Z,46.57
2023-02-09T02:33:53.004Z,46.57
2023-02-09T02:34:52.975Z,46.41
2023-02-09T02:35:52.964Z,45.92
2023-02-09T02:36:52.969Z,46.57
2023-02-09T02:37:52.938Z,45.76
2023-02-09T02:38:52.986Z,45.44
2023-02-09T02:39:52.913Z,46.25
2023-02-09T02:40:52.903Z,46.73
2023-02-09T02:41:52.884Z,46.73
2023-02-09T02:42:52.912Z,45.60
2023-02-09T02:43:52.894Z,46.08
2023-02-09T02:44:52.846Z,46.08
2023-02-09T02:45:52.836Z,45.76
2023-02-09T02:46:52.817Z,46.73
2023-02-09T02:47:52.839Z,48.02
2023-02-09T02:48:52.847Z,46.25
2023-02-09T02:49:52.792Z,45.92
2023-02-09T02:50:52.835Z,46.73
2023-02-09T02:51:52.778Z,46.73
2023-02-09T02:52:52.749Z,46.41
2023-02-09T02:53:52.758Z,46.41
2023-02-09T02:54:52.739Z,46.08
2023-02-09T02:55:52.720Z,47.53
2023-02-09T02:56:52.715Z,46.73
2023-02-09T02:57:52.701Z,47.86
2023-02-09T02:58:52.693Z,46.89
2023-02-09T02:59:52.688Z,46.73
2023-02-09T03:00:52.655Z,46.41
2023-02-09T03:01:52.697Z,46.57
2023-02-09T03:02:52.624Z,46.57
2023-02-09T03:03:52.638Z,46.57
2023-02-09T03:04:52.615Z,47.05
2023-02-09T03:05:52.600Z,46.57
2023-02-09T03:06:52.576Z,47.05
2023-02-09T03:07:52.577Z,46.89
2023-02-09T03:08:52.542Z,46.57
2023-02-09T03:09:52.583Z,46.25
2023-02-09T03:10:52.537Z,46.08
2023-02-09T03:11:52.524Z,46.57
2023-02-09T03:12:52.504Z,46.25
2023-02-09T03:13:52.492Z,46.73
2023-02-09T03:14:52.501Z,47.70
2023-02-09T03:15:52.464Z,47.21
2023-02-09T03:16:52.470Z,47.37
2023-02-09T03:17:52.433Z,46.57
2023-02-09T03:18:52.429Z,47.37
2023-02-09T03:19:52.432Z,46.89
2023-02-09T03:20:52.396Z,47.21
2023-02-09T03:21:52.392Z,47.53
2023-02-09T03:22:52.402Z,47.70
2023-02-09T03:23:52.373Z,47.37
2023-02-09T03:24:52.353Z,48.02
2023-02-09T03:25:52.332Z,46.89
2023-02-09T03:26:52.342Z,47.05
2023-02-09T03:27:52.340Z,47.21
2023-02-09T03:28:52.290Z,47.21
2023-02-09T03:29:52.292Z,47.21
2023-02-09T03:30:52.405Z,47.53
2023-02-09T03:31:52.295Z,46.73
2023-02-09T03:32:52.231Z,46.89
2023-02-09T03:33:52.250Z,46.89
2023-02-09T03:34:52.226Z,47.21
2023-02-09T03:35:52.206Z,46.73
2023-02-09T03:36:52.188Z,46.89
2023-02-09T03:37:52.172Z,47.21
2023-02-09T03:38:52.175Z,47.21
2023-02-09T03:39:52.195Z,46.57
2023-02-09T03:40:52.142Z,48.50
2023-02-09T03:41:52.123Z,46.89
2023-02-09T03:42:52.124Z,46.57
2023-02-09T03:43:52.166Z,46.57
2023-02-09T03:44:52.100Z,46.57
2023-02-09T03:45:52.122Z,47.53
2023-02-09T03:46:52.163Z,47.21
2023-02-09T03:47:52.046Z,46.57
2023-02-09T03:48:52.050Z,47.53
2023-02-09T03:49:52.022Z,47.53
2023-02-09T03:50:52.026Z,47.37
2023-02-09T03:51:51.993Z,47.70
2023-02-09T03:52:51.969Z,47.53
2023-02-09T03:53:52.013Z,48.18
2023-02-09T03:54:51.968Z,47.21
2023-02-09T03:55:51.962Z,48.34
2023-02-09T03:56:51.935Z,47.70
2023-02-09T03:57:51.912Z,47.05
2023-02-09T03:58:51.913Z,46.89
2023-02-09T03:59:51.877Z,47.70
2023-02-09T04:00:51.940Z,47.21
2023-02-09T04:01:51.874Z,47.70
2023-02-09T04:02:51.926Z,47.53
2023-02-09T04:03:51.843Z,47.37
2023-02-09T04:04:51.857Z,50.27
2023-02-09T04:05:51.820Z,47.05
2023-02-09T04:06:51.813Z,47.70
2023-02-09T04:07:51.781Z,49.79
2023-02-09T04:08:51.789Z,48.18
2023-02-09T04:09:51.767Z,47.70
2023-02-09T04:10:51.760Z,47.86
2023-02-09T04:11:51.719Z,47.86
2023-02-09T04:12:51.748Z,48.02
2023-02-09T04:13:51.721Z,48.02
2023-02-09T04:14:51.709Z,47.21
2023-02-09T04:15:51.768Z,48.18
2023-02-09T04:16:51.678Z,48.50
2023-02-09T04:17:51.646Z,47.53
2023-02-09T04:18:51.638Z,47.70
2023-02-09T04:19:51.621Z,48.34
2023-02-09T04:20:51.638Z,48.02
2023-02-09T04:21:51.587Z,47.86
2023-02-09T04:22:51.611Z,47.70
2023-02-09T04:23:51.595Z,48.02
2023-02-09T04:24:51.560Z,48.66
2023-02-09T04:25:51.560Z,48.82
2023-02-09T04:26:51.537Z,48.50
2023-02-09T04:27:51.576Z,48.82
2023-02-09T04:28:51.508Z,48.82
2023-02-09T04:29:51.500Z,48.66
2023-02-09T04:30:51.526Z,47.21
2023-02-09T04:31:51.541Z,48.50
2023-02-09T04:32:51.463Z,49.15
2023-02-09T04:33:51.441Z,49.47
2023-02-09T04:34:51.430Z,48.82
2023-02-09T04:35:51.432Z,48.34
2023-02-09T04:36:51.403Z,49.15
2023-02-09T04:37:51.393Z,49.15
2023-02-09T04:38:51.384Z,49.31
2023-02-09T04:39:51.375Z,49.79
2023-02-09T04:40:51.393Z,49.31
2023-02-09T04:41:51.342Z,48.50
2023-02-09T04:42:51.332Z,49.79
2023-02-09T04:43:51.314Z,48.82
2023-02-09T04:44:51.311Z,49.15
2023-02-09T04:45:51.364Z,49.31
2023-02-09T04:46:51.279Z,48.82
2023-02-09T04:47:51.265Z,49.31
2023-02-09T04:48:51.268Z,48.98
2023-02-09T04:49:51.237Z,51.08
2023-02-09T04:50:51.223Z,49.31
2023-02-09T04:51:51.224Z,51.72
2023-02-09T04:52:51.198Z,51.56
2023-02-09T04:53:51.180Z,48.98
2023-02-09T04:54:51.165Z,50.11
2023-02-09T04:55:51.145Z,49.79
2023-02-09T04:56:51.163Z,49.79
2023-02-09T04:57:51.127Z,48.82
2023-02-09T04:58:51.138Z,49.47
2023-02-09T04:59:51.092Z,49.63
2023-02-09T05:00:51.149Z,49.79
2023-02-09T05:01:51.086Z,55.43
2023-02-09T05:02:51.065Z,49.31
2023-02-09T05:03:51.116Z,49.79
2023-02-09T05:04:51.042Z,49.47
2023-02-09T05:05:51.026Z,50.60
2023-02-09T05:06:51.029Z,49.79
2023-02-09T05:07:51.023Z,51.72
2023-02-09T05:08:51.011Z,48.82
2023-02-09T05:09:50.976Z,48.82
2023-02-09T05:10:50.954Z,50.27
2023-02-09T05:11:50.954Z,51.40
2023-02-09T05:12:50.954Z,50.11
2023-02-09T05:13:50.940Z,49.31
2023-02-09T05:14:50.904Z,51.24
2023-02-09T05:15:50.942Z,51.72
2023-02-09T05:16:50.957Z,52.85
2023-02-09T05:17:50.868Z,51.24
2023-02-09T05:18:50.868Z,50.27
2023-02-09T05:19:50.857Z,51.40
2023-02-09T05:20:50.890Z,53.98
2023-02-09T05:21:50.820Z,52.05
2023-02-09T05:22:50.814Z,50.92
2023-02-09T05:23:50.805Z,54.79
2023-02-09T05:24:50.786Z,49.79
2023-02-09T05:25:50.788Z,55.91
2023-02-09T05:26:50.754Z,49.63
2023-02-09T05:27:50.754Z,50.27
2023-02-09T05:28:50.718Z,60.42
2023-02-09T05:29:50.709Z,50.60
2023-02-09T05:30:50.742Z,51.56
2023-02-09T05:31:50.726Z,49.47
2023-02-09T05:32:50.677Z,49.31
2023-02-09T05:33:50.655Z,49.47
2023-02-09T05:34:50.643Z,50.27
2023-02-09T05:35:50.650Z,53.82
2023-02-09T05:36:50.617Z,50.11
2023-02-09T05:37:50.603Z,51.56
2023-02-09T05:38:50.615Z,53.17
2023-02-09T05:39:50.575Z,50.27
2023-02-09T05:40:51.020Z,52.37
2023-02-09T05:41:50.556Z,50.60
2023-02-09T05:42:50.551Z,51.40
2023-02-09T05:43:50.531Z,50.27
2023-02-09T05:44:50.515Z,56.40
2023-02-09T05:45:50.581Z,49.95
2023-02-09T05:46:50.486Z,50.76
2023-02-09T05:47:50.476Z,56.07
2023-02-09T05:48:50.455Z,57.52
2023-02-09T05:49:50.461Z,58.01
2023-02-09T05:50:50.461Z,59.14
2023-02-09T05:51:50.417Z,51.40
2023-02-09T05:52:50.405Z,56.56
2023-02-09T05:53:50.387Z,63.65
2023-02-09T05:54:50.381Z,52.69
2023-02-09T05:55:50.380Z,51.88
2023-02-09T05:56:50.362Z,51.88
2023-02-09T05:57:50.334Z,51.88
2023-02-09T05:58:50.333Z,51.40
2023-02-09T05:59:50.316Z,58.01
2023-02-09T06:00:50.313Z,56.24
2023-02-09T06:01:50.285Z,52.69
2023-02-09T06:02:50.278Z,52.85
2023-02-09T06:03:50.297Z,56.56
2023-02-09T06:04:50.246Z,62.20
2023-02-09T06:05:50.246Z,56.56
2023-02-09T06:06:50.220Z,52.21
2023-02-09T06:07:50.210Z,53.82
2023-02-09T06:08:50.197Z,53.50
2023-02-09T06:09:50.176Z,53.17
2023-02-09T06:10:50.197Z,60.91
2023-02-09T06:11:50.160Z,56.40
2023-02-09T06:12:50.138Z,52.21
2023-02-09T06:13:50.130Z,55.75
2023-02-09T06:14:50.127Z,53.98
2023-02-09T06:15:50.167Z,51.24
2023-02-09T06:16:50.095Z,53.66
2023-02-09T06:17:50.071Z,54.62
2023-02-09T06:18:50.064Z,57.85
2023-02-09T06:19:50.059Z,50.76
2023-02-09T06:20:50.067Z,51.08
2023-02-09T06:21:50.018Z,51.40
2023-02-09T06:22:50.025Z,57.52
2023-02-09T06:23:49.998Z,54.14
2023-02-09T06:24:49.990Z,53.82
2023-02-09T06:25:49.990Z,54.79
2023-02-09T06:26:49.980Z,51.88
2023-02-09T06:27:50.042Z,51.56
2023-02-09T06:28:49.953Z,52.05
2023-02-09T06:29:49.920Z,57.04
2023-02-09T06:30:50.521Z,51.08
2023-02-09T06:31:50.036Z,60.75
2023-02-09T06:32:49.884Z,53.17
2023-02-09T06:33:49.869Z,50.76
2023-02-09T06:34:49.873Z,56.07
2023-02-09T06:35:52.229Z,62.36
2023-02-09T06:36:49.830Z,63.16
2023-02-09T06:37:49.821Z,56.24
2023-02-09T06:38:49.801Z,64.45
2023-02-09T06:39:49.819Z,49.95
2023-02-09T06:40:49.820Z,51.72
2023-02-09T06:41:49.813Z,51.08
2023-02-09T06:42:49.759Z,50.76
2023-02-09T06:43:49.742Z,52.05
2023-02-09T06:44:49.725Z,61.23
2023-02-09T06:45:49.773Z,50.92
2023-02-09T06:46:49.724Z,51.88
2023-02-09T06:47:49.685Z,56.07
2023-02-09T06:48:49.683Z,53.66
2023-02-09T06:49:49.651Z,56.72
2023-02-09T06:50:49.679Z,54.30
2023-02-09T06:51:49.634Z,51.88
2023-02-09T06:52:49.647Z,62.36
2023-02-09T06:53:49.623Z,53.98
2023-02-09T06:54:49.600Z,52.85
2023-02-09T06:55:49.611Z,56.24
2023-02-09T06:56:49.575Z,53.17
2023-02-09T06:57:49.587Z,51.72
2023-02-09T06:58:49.552Z,54.62
2023-02-09T06:59:49.530Z,53.82
2023-02-09T07:00:49.546Z,53.66
2023-02-09T07:01:49.547Z,56.56
2023-02-09T07:02:49.544Z,52.37
2023-02-09T07:03:49.474Z,53.66
2023-02-09T07:04:49.479Z,52.21
2023-02-09T07:05:49.461Z,52.85
2023-02-09T07:06:49.440Z,50.76
2023-02-09T07:07:49.426Z,53.66
2023-02-09T07:08:49.449Z,53.66
2023-02-09T07:09:49.410Z,51.56
2023-02-09T07:10:49.410Z,51.24
2023-02-09T07:11:49.370Z,51.08
2023-02-09T07:12:49.370Z,55.91
2023-02-09T07:13:49.347Z,51.40
2023-02-09T07:14:49.333Z,52.53
2023-02-09T07:15:49.405Z,52.37
2023-02-09T07:16:49.311Z,53.01
2023-02-09T07:17:49.296Z,52.37
2023-02-09T07:18:49.287Z,53.50
2023-02-09T07:19:49.272Z,52.69
2023-02-09T07:20:49.285Z,52.05
2023-02-09T07:21:49.242Z,59.14
2023-02-09T07:22:49.234Z,54.30
2023-02-09T07:23:49.207Z,53.17
2023-02-09T07:24:49.212Z,53.01
2023-02-09T07:25:49.201Z,52.69
2023-02-09T07:26:49.172Z,50.92
2023-02-09T07:27:49.167Z,54.14
2023-02-09T07:28:49.152Z,50.76
2023-02-09T07:29:49.151Z,54.95
2023-02-09T07:30:49.340Z,55.59
2023-02-09T07:31:49.162Z,51.72
2023-02-09T07:32:49.101Z,55.11
2023-02-09T07:33:49.082Z,53.17
2023-02-09T07:34:49.071Z,53.17
2023-02-09T07:35:49.146Z,53.66
2023-02-09T07:36:49.044Z,52.05
2023-02-09T07:37:49.028Z,51.88
2023-02-09T07:38:49.023Z,55.75
2023-02-09T07:39:49.000Z,55.91
2023-02-09T07:41:46.316Z,55.11
2023-02-09T07:42:46.316Z,53.33
2023-02-09T07:43:46.320Z,52.85
2023-02-09T07:44:46.293Z,57.20
2023-02-09T07:45:46.668Z,53.33
2023-02-09T07:46:46.271Z,52.37
2023-02-09T07:47:46.231Z,54.14
2023-02-09T07:48:46.213Z,52.37
2023-02-09T07:49:46.194Z,54.30
2023-02-09T07:50:46.393Z,55.75
2023-02-09T07:51:46.181Z,54.95
2023-02-09T07:52:46.161Z,53.98
2023-02-09T07:53:46.152Z,51.72
2023-02-09T07:54:46.139Z,55.27
2023-02-09T07:55:46.394Z,63.81
2023-02-09T07:56:46.105Z,60.10
2023-02-09T07:57:46.098Z,57.04
2023-02-09T07:58:46.097Z,51.56
2023-02-09T07:59:46.070Z,51.40
2023-02-09T08:00:46.134Z,53.98
2023-02-09T08:01:46.120Z,58.49
2023-02-09T08:02:46.032Z,54.62
2023-02-09T08:03:46.024Z,58.65
2023-02-09T08:04:46.087Z,57.04
2023-02-09T08:05:46.429Z,67.51
2023-02-09T08:06:45.993Z,53.33
2023-02-09T08:07:45.978Z,51.56
2023-02-09T08:08:45.950Z,58.65
2023-02-09T08:09:45.941Z,54.95
2023-02-09T08:10:45.940Z,51.72
2023-02-09T08:11:46.204Z,53.33
2023-02-09T08:12:45.910Z,51.72
2023-02-09T08:13:45.880Z,52.05
2023-02-09T08:14:45.869Z,51.40
2023-02-09T08:15:46.125Z,54.95
2023-02-09T08:16:45.842Z,59.62
2023-02-09T08:17:45.854Z,67.84
2023-02-09T08:18:45.813Z,55.91
2023-02-09T08:19:45.810Z,52.05
2023-02-09T08:20:45.807Z,52.05
2023-02-09T08:21:45.781Z,52.05
2023-02-09T08:22:45.769Z,52.05
2023-02-09T08:23:45.755Z,56.72
2023-02-09T08:24:45.749Z,53.82
2023-02-09T08:25:46.113Z,52.21
2023-02-09T08:26:45.836Z,51.08
2023-02-09T08:27:45.714Z,51.88
2023-02-09T08:28:45.848Z,52.37
2023-02-09T08:29:47.459Z,51.88
2023-02-09T08:30:45.781Z,50.43
2023-02-09T08:31:45.667Z,52.37
2023-02-09T08:32:45.642Z,51.56
2023-02-09T08:33:45.629Z,52.85
2023-02-09T08:34:45.611Z,51.88
2023-02-09T08:35:45.976Z,55.43
2023-02-09T08:36:45.572Z,56.56
2023-02-09T08:37:45.574Z,52.85
2023-02-09T08:38:45.553Z,52.05
2023-02-09T08:39:45.595Z,53.01
2023-02-09T08:40:45.541Z,52.53
2023-02-09T08:41:46.406Z,53.66
2023-02-09T08:42:45.592Z,54.62
2023-02-09T08:43:45.500Z,52.21
2023-02-09T08:44:45.495Z,53.01
2023-02-09T08:45:45.843Z,55.59
2023-02-09T08:46:45.618Z,59.78
2023-02-09T08:47:45.449Z,58.65
2023-02-09T08:48:45.433Z,51.24
2023-02-09T08:49:45.414Z,59.46
2023-02-09T08:50:45.447Z,57.69
2023-02-09T08:51:45.406Z,57.85
2023-02-09T08:52:45.384Z,68.96
2023-02-09T08:53:45.380Z,64.94
2023-02-09T08:54:45.348Z,64.45
2023-02-09T08:55:45.680Z,68.16
2023-02-09T08:56:45.335Z,75.09
2023-02-09T08:57:45.338Z,65.90
2023-02-09T08:58:45.305Z,71.87
2023-02-09T08:59:45.308Z,70.74
2023-02-09T09:00:45.358Z,70.42
2023-02-09T09:01:45.277Z,74.12
2023-02-09T09:02:45.254Z,67.84
2023-02-09T09:03:45.362Z,66.87
2023-02-09T09:04:45.234Z,73.15
2023-02-09T09:05:45.569Z,70.09
2023-02-09T09:06:45.196Z,64.94
2023-02-09T09:07:45.196Z,72.83
2023-02-09T09:08:45.167Z,67.03
2023-02-09T09:09:45.165Z,68.96
2023-02-09T09:10:45.165Z,61.55
2023-02-09T09:11:45.136Z,65.26
2023-02-09T09:12:45.126Z,53.66
2023-02-09T09:13:45.117Z,57.04
2023-02-09T09:14:45.097Z,51.08
2023-02-09T09:15:45.641Z,50.27
2023-02-09T09:16:45.125Z,49.95
2023-02-09T09:17:45.061Z,51.72
2023-02-09T09:18:45.061Z,52.53
2023-02-09T09:19:45.042Z,55.59
2023-02-09T09:20:45.042Z,50.76
2023-02-09T09:21:45.005Z,50.92
2023-02-09T09:22:44.988Z,50.60
2023-02-09T09:23:44.995Z,51.40
2023-02-09T09:24:44.967Z,51.40
2023-02-09T09:25:45.276Z,61.07
2023-02-09T09:26:44.939Z,51.56
2023-02-09T09:27:44.966Z,50.27
2023-02-09T09:28:44.927Z,52.37
2023-02-09T09:29:44.907Z,57.20
2023-02-09T09:30:44.950Z,56.56
2023-02-09T09:31:44.910Z,54.14
2023-02-09T09:32:44.893Z,62.36
2023-02-09T09:33:44.865Z,49.95
2023-02-09T09:34:44.837Z,50.27
2023-02-09T09:35:45.034Z,58.01
2023-02-09T09:36:44.809Z,54.95
2023-02-09T09:37:44.830Z,50.43
2023-02-09T09:38:44.799Z,51.40
2023-02-09T09:39:44.777Z,51.56
2023-02-09T09:40:44.813Z,50.11
2023-02-09T09:41:44.748Z,52.53
2023-02-09T09:42:44.741Z,51.24
2023-02-09T09:43:44.756Z,49.63
2023-02-09T09:44:47.152Z,52.05
2023-02-09T09:45:45.205Z,50.76
2023-02-09T09:46:44.679Z,49.47
2023-02-09T09:47:44.733Z,49.79
2023-02-09T09:48:44.656Z,50.11
2023-02-09T09:49:44.657Z,51.72
2023-02-09T09:50:44.697Z,50.76
2023-02-09T09:51:44.620Z,51.56
2023-02-09T09:52:44.612Z,64.94
2023-02-09T09:53:44.596Z,53.33
2023-02-09T09:54:44.579Z,50.27
2023-02-09T09:55:44.620Z,49.31
2023-02-09T09:56:44.570Z,55.27
2023-02-09T09:57:44.537Z,49.95
2023-02-09T09:58:44.534Z,49.95
2023-02-09T09:59:44.535Z,62.04
2023-02-09T10:00:44.530Z,52.69
2023-02-09T10:01:44.509Z,51.40
2023-02-09T10:02:44.481Z,56.88
2023-02-09T10:03:44.480Z,53.98
2023-02-09T10:04:44.534Z,50.76
2023-02-09T10:05:44.757Z,51.56
2023-02-09T10:06:44.420Z,52.69
2023-02-09T10:07:44.407Z,49.47
2023-02-09T10:08:44.413Z,50.92
2023-02-09T10:09:44.392Z,53.98
2023-02-09T10:10:44.709Z,51.24
2023-02-09T10:11:44.364Z,49.47
2023-02-09T10:12:44.347Z,52.69
2023-02-09T10:13:44.335Z,51.24
2023-02-09T10:14:44.304Z,50.60
2023-02-09T10:15:44.449Z,58.97
2023-02-09T10:16:44.334Z,59.46
2023-02-09T10:17:44.275Z,52.05
2023-02-09T10:18:44.272Z,55.75
2023-02-09T10:19:44.262Z,50.27
2023-02-09T10:20:44.276Z,49.79
2023-02-09T10:21:44.235Z,49.79
2023-02-09T10:22:44.216Z,50.27
2023-02-09T10:23:44.204Z,50.60
2023-02-09T10:24:44.193Z,52.69
2023-02-09T10:25:44.406Z,53.01
2023-02-09T10:26:44.194Z,60.75
2023-02-09T10:27:44.147Z,54.95
2023-02-09T10:28:44.133Z,50.92
2023-02-09T10:29:44.126Z,72.83
2023-02-09T10:30:44.226Z,56.07
2023-02-09T10:31:44.210Z,54.30
2023-02-09T10:32:44.083Z,51.72
2023-02-09T10:33:44.074Z,49.47
2023-02-09T10:34:44.066Z,52.85
2023-02-09T10:35:44.229Z,66.71
2023-02-09T10:36:44.055Z,52.69
2023-02-09T10:37:44.024Z,54.30
2023-02-09T10:38:44.002Z,48.98
2023-02-09T10:39:43.992Z,49.63
2023-02-09T10:40:43.971Z,54.95
2023-02-09T10:41:44.017Z,54.79
2023-02-09T10:42:43.945Z,70.90
2023-02-09T10:43:43.941Z,65.26
2023-02-09T10:44:43.929Z,60.26
2023-02-09T10:45:44.334Z,58.81
2023-02-09T10:46:43.918Z,63.33
2023-02-09T10:47:43.882Z,65.10
2023-02-09T10:48:43.888Z,61.87
2023-02-09T10:49:43.853Z,68.80
2023-02-09T10:50:43.842Z,71.54
2023-02-09T10:51:43.874Z,68.00
2023-02-09T10:52:43.805Z,80.41
2023-02-09T10:53:43.801Z,59.62
2023-02-09T10:54:43.772Z,73.64
2023-02-09T10:55:43.840Z,63.49
2023-02-09T10:56:43.782Z,53.82
2023-02-09T10:57:43.744Z,48.98
2023-02-09T10:58:43.732Z,48.50
2023-02-09T10:59:43.724Z,48.98
2023-02-09T11:00:43.712Z,52.69
2023-02-09T11:01:43.917Z,49.95
2023-02-09T11:02:43.686Z,48.50
2023-02-09T11:03:43.680Z,48.98
2023-02-09T11:04:43.721Z,49.15
2023-02-09T11:05:43.686Z,49.15
2023-02-09T11:06:43.649Z,48.66
2023-02-09T11:07:43.628Z,48.34
2023-02-09T11:08:43.600Z,48.34
2023-02-09T11:09:43.615Z,48.34
2023-02-09T11:10:43.578Z,48.50
2023-02-09T11:11:43.578Z,48.82
2023-02-09T11:12:43.558Z,49.95
2023-02-09T11:13:43.553Z,55.91
2023-02-09T11:14:43.545Z,54.95
2023-02-09T11:15:43.611Z,48.34
2023-02-09T11:16:43.521Z,49.31
2023-02-09T11:17:43.489Z,54.95
2023-02-09T11:18:43.482Z,54.30
2023-02-09T11:19:43.470Z,49.31
2023-02-09T11:20:43.476Z,51.72
2023-02-09T11:21:43.475Z,53.33
2023-02-09T11:22:43.437Z,48.98
2023-02-09T11:23:43.411Z,64.78
2023-02-09T11:24:43.405Z,47.53
2023-02-09T11:25:43.559Z,63.65
2023-02-09T11:26:43.380Z,50.76
2023-02-09T11:27:43.360Z,51.88
2023-02-09T11:28:43.342Z,50.92
2023-02-09T11:29:43.333Z,61.39
2023-02-09T11:30:43.466Z,50.60
2023-02-09T11:31:43.325Z,45.44
2023-02-09T11:32:43.292Z,55.91
2023-02-09T11:33:43.276Z,51.24
2023-02-09T11:34:43.269Z,59.46
2023-02-09T11:35:43.245Z,48.02
2023-02-09T11:36:43.265Z,47.37
2023-02-09T11:37:43.233Z,51.88
2023-02-09T11:38:43.204Z,49.79
2023-02-09T11:39:43.219Z,47.53
2023-02-09T11:40:43.182Z,49.15
2023-02-09T11:41:43.183Z,49.95
2023-02-09T11:42:43.165Z,43.99
2023-02-09T11:43:43.145Z,45.60
2023-02-09T11:44:43.124Z,44.31
2023-02-09T11:45:43.118Z,46.08
2023-02-09T11:46:43.163Z,48.02
2023-02-09T11:47:43.092Z,46.73
2023-02-09T11:48:43.080Z,43.83
2023-02-09T11:49:43.056Z,45.28
2023-02-09T11:50:43.075Z,46.41
2023-02-09T11:51:43.056Z,50.60
2023-02-09T11:52:43.029Z,53.82
2023-02-09T11:53:43.038Z,61.23
2023-02-09T11:54:43.000Z,59.62
2023-02-09T11:55:42.995Z,51.08
2023-02-09T11:56:42.985Z,51.56
2023-02-09T11:57:42.968Z,51.08
2023-02-09T11:58:42.946Z,48.02
2023-02-09T11:59:42.944Z,53.82
2023-02-09T12:00:54.498Z,49.79
2023-02-09T12:01:43.916Z,48.98
2023-02-09T12:02:42.965Z,48.66
2023-02-09T12:03:42.882Z,54.14
2023-02-09T12:04:42.870Z,57.04
2023-02-09T12:05:42.858Z,55.75
2023-02-09T12:06:42.920Z,64.13
2023-02-09T12:07:42.846Z,53.33
2023-02-09T12:08:42.818Z,58.17
2023-02-09T12:09:42.804Z,58.01
2023-02-09T12:10:42.875Z,58.65
2023-02-09T12:11:42.768Z,46.73
2023-02-09T12:12:42.752Z,53.82
2023-02-09T12:13:42.739Z,46.57
2023-02-09T12:14:42.730Z,48.18
2023-02-09T12:15:42.720Z,61.39
2023-02-09T12:16:42.745Z,52.85
2023-02-09T12:17:42.685Z,50.92
2023-02-09T12:18:42.670Z,50.43
2023-02-09T12:19:42.660Z,43.18
2023-02-09T12:20:42.642Z,46.57
2023-02-09T12:21:42.649Z,49.63
2023-02-09T12:22:42.633Z,45.28
2023-02-09T12:23:42.600Z,45.28
2023-02-09T12:24:42.591Z,73.15
2023-02-09T12:25:42.576Z,47.70
2023-02-09T12:26:42.589Z,57.85
2023-02-09T12:27:42.546Z,47.37
2023-02-09T12:28:42.551Z,47.21
2023-02-09T12:29:42.511Z,43.83
2023-02-09T12:30:42.632Z,51.40
2023-02-09T12:31:45.186Z,46.57
2023-02-09T12:32:42.492Z,45.12
2023-02-09T12:33:42.482Z,44.15
2023-02-09T12:34:42.479Z,48.18
2023-02-09T12:35:42.431Z,51.08
2023-02-09T12:36:42.451Z,54.30
2023-02-09T12:37:42.402Z,58.81
2023-02-09T12:38:49.077Z,51.40
2023-02-09T12:39:43.370Z,56.07
2023-02-09T12:40:42.371Z,53.98
2023-02-09T12:41:42.369Z,47.37
2023-02-09T12:42:42.368Z,53.17
2023-02-09T12:43:42.337Z,47.05
2023-02-09T12:44:42.319Z,46.08
2023-02-09T12:45:42.394Z,52.05
2023-02-09T12:46:42.302Z,58.33
2023-02-09T12:47:42.261Z,52.21
2023-02-09T12:48:42.273Z,52.37
2023-02-09T12:49:42.270Z,52.69
2023-02-09T12:50:42.231Z,61.39
2023-02-09T12:51:42.223Z,50.60
2023-02-09T12:52:42.214Z,46.08
2023-02-09T12:53:42.197Z,46.41